createdAt,value
2023-01-22T00:01:34.822Z,0.00
2023-01-22T00:04:07.534Z,0.00
2023-01-22T00:06:40.321Z,0.00
2023-01-22T00:09:13.058Z,-0.10
2023-01-22T00:11:45.755Z,-0.10
2023-01-22T00:14:18.766Z,-0.10
2023-01-22T00:16:51.730Z,-0.10
2023-01-22T00:19:24.437Z,-0.10
2023-01-22T00:21:57.189Z,-0.10
2023-01-22T00:24:29.912Z,-0.10
2023-01-22T00:27:02.641Z,0.00
2023-01-22T00:29:35.380Z,0.00
2023-01-22T00:32:08.192Z,0.00
2023-01-22T00:34:40.939Z,-0.10
2023-01-22T00:37:13.620Z,0.00
2023-01-22T00:39:50.142Z,-0.10
2023-01-22T00:42:23.565Z,0.00
2023-01-22T00:44:56.404Z,0.00
2023-01-22T00:47:29.117Z,0.00
2023-01-22T00:50:02.437Z,0.00
2023-01-22T00:52:35.294Z,-0.10
2023-01-22T00:55:08.580Z,-0.10
2023-01-22T00:57:41.330Z,-0.10
2023-01-22T01:00:14.925Z,-0.10
2023-01-22T01:03:06.509Z,-0.10
2023-01-22T01:05:39.193Z,-0.10
2023-01-22T01:08:11.892Z,-0.10
2023-01-22T01:10:45.062Z,-0.10
2023-01-22T01:13:17.780Z,-0.10
2023-01-22T01:15:57.981Z,-0.10
2023-01-22T01:18:31.956Z,-0.10
2023-01-22T01:21:07.277Z,-0.10
2023-01-22T01:23:40.041Z,-0.10
2023-01-22T01:26:14.634Z,-0.10
2023-01-22T01:28:48.072Z,-0.10
2023-01-22T01:31:23.194Z,-0.20
2023-01-22T01:33:56.160Z,-0.10
2023-01-22T01:36:47.515Z,-0.10
2023-01-22T01:39:21.345Z,-0.10
2023-01-22T01:41:54.169Z,-0.10
2023-01-22T01:44:31.586Z,0.00
2023-01-22T01:47:09.736Z,0.00
2023-01-22T01:49:50.795Z,0.00
2023-01-22T01:52:24.312Z,0.00
2023-01-22T01:54:58.259Z,-0.10
2023-01-22T01:57:33.668Z,-0.10
2023-01-22T02:00:12.481Z,0.00
2023-01-22T02:02:49.193Z,0.00
2023-01-22T02:05:23.373Z,0.00
2023-01-22T02:07:56.228Z,0.00
2023-01-22T02:10:29.307Z,-0.10
2023-01-22T02:13:08.543Z,-0.10
2023-01-22T02:15:42.751Z,-0.10
2023-01-22T02:18:15.430Z,-0.10
2023-01-22T02:20:57.261Z,-0.10
2023-01-22T02:23:32.766Z,-0.10
2023-01-22T02:26:06.878Z,0.00
2023-01-22T02:28:39.554Z,0.00
2023-01-22T02:31:12.768Z,-0.10
2023-01-22T02:33:46.008Z,-0.10
2023-01-22T02:36:19.176Z,-0.10
2023-01-22T02:38:52.038Z,-0.10
2023-01-22T02:41:26.015Z,-0.10
2023-01-22T02:43:58.759Z,-0.10
2023-01-22T02:46:31.481Z,-0.10
2023-01-22T02:49:04.843Z,-0.10
2023-01-22T02:51:38.283Z,-0.10
2023-01-22T02:54:11.223Z,-0.10
2023-01-22T02:56:44.273Z,-0.10
2023-01-22T02:59:17.322Z,-0.10
2023-01-22T03:01:51.003Z,-0.10
2023-01-22T03:04:23.934Z,-0.10
2023-01-22T03:06:56.605Z,-0.10
2023-01-22T03:09:32.237Z,-0.10
2023-01-22T03:12:05.384Z,-0.10
2023-01-22T03:14:59.498Z,-0.10
2023-01-22T03:17:51.117Z,-0.20
2023-01-22T03:20:42.418Z,-0.20
2023-01-22T03:23:15.591Z,-0.10
2023-01-22T03:25:48.349Z,-0.10
2023-01-22T03:28:21.092Z,-0.10
2023-01-22T03:30:58.542Z,-0.10
2023-01-22T03:33:32.026Z,-0.10
2023-01-22T03:36:07.934Z,-0.10
2023-01-22T03:38:42.925Z,-0.10
2023-01-22T03:41:19.878Z,-0.10
2023-01-22T03:43:54.553Z,-0.10
2023-01-22T03:46:32.208Z,0.00
2023-01-22T03:49:04.945Z,0.00
2023-01-22T03:51:37.945Z,0.00
2023-01-22T03:54:12.240Z,0.00
2023-01-22T03:56:44.938Z,0.00
2023-01-22T03:59:30.104Z,0.00
2023-01-22T04:02:02.926Z,0.00
2023-01-22T04:04:36.929Z,0.00
2023-01-22T04:07:09.622Z,0.00
2023-01-22T04:09:42.329Z,0.00
2023-01-22T04:12:15.169Z,0.00
2023-01-22T04:14:49.145Z,0.00
2023-01-22T04:17:21.870Z,0.00
2023-01-22T04:19:57.505Z,0.00
2023-01-22T04:22:48.959Z,0.00
2023-01-22T04:25:21.941Z,0.00
2023-01-22T04:27:54.746Z,0.00
2023-01-22T04:30:28.617Z,0.00
2023-01-22T04:33:14.914Z,0.00
2023-01-22T04:36:05.086Z,0.00
2023-01-22T04:38:37.906Z,0.10
2023-01-22T04:41:10.771Z,0.10
2023-01-22T04:43:44.005Z,0.10
2023-01-22T04:46:16.887Z,0.10
2023-01-22T04:48:49.791Z,0.10
2023-01-22T04:51:24.617Z,0.10
2023-01-22T04:53:57.942Z,0.10
2023-01-22T04:56:30.639Z,0.10
2023-01-22T04:59:03.353Z,0.10
2023-01-22T05:01:36.753Z,0.10
2023-01-22T05:04:10.920Z,0.10
2023-01-22T05:06:43.605Z,0.10
2023-01-22T05:09:16.815Z,0.10
2023-01-22T05:11:57.741Z,0.10
2023-01-22T05:14:31.345Z,0.10
2023-01-22T05:17:03.985Z,0.10
2023-01-22T05:19:37.528Z,0.10
2023-01-22T05:22:13.400Z,0.10
2023-01-22T05:24:46.238Z,0.10
2023-01-22T05:27:20.046Z,0.10
2023-01-22T05:30:13.951Z,0.10
2023-01-22T05:33:22.325Z,0.10
2023-01-22T05:35:59.156Z,0.10
2023-01-22T05:38:32.041Z,0.20
2023-01-22T05:41:04.995Z,0.20
2023-01-22T05:43:42.176Z,0.10
2023-01-22T05:46:19.880Z,0.10
2023-01-22T05:48:57.144Z,0.20
2023-01-22T05:51:32.553Z,0.10
2023-01-22T05:54:05.699Z,0.20
2023-01-22T05:56:41.888Z,0.10
2023-01-22T05:59:14.860Z,0.10
2023-01-22T06:01:52.154Z,0.20
2023-01-22T06:04:24.982Z,0.20
2023-01-22T06:06:58.056Z,0.20
2023-01-22T06:09:31.412Z,0.20
2023-01-22T06:12:04.460Z,0.20
2023-01-22T06:14:37.465Z,0.20
2023-01-22T06:17:11.635Z,0.30
2023-01-22T06:19:47.870Z,0.20
2023-01-22T06:22:22.552Z,0.20
2023-01-22T06:25:00.138Z,0.30
2023-01-22T06:27:46.861Z,0.20
2023-01-22T06:30:19.904Z,0.30
2023-01-22T06:32:54.001Z,0.30
2023-01-22T06:35:27.278Z,0.30
2023-01-22T06:38:00.026Z,0.30
2023-01-22T06:40:36.852Z,0.30
2023-01-22T06:43:11.271Z,0.30
2023-01-22T06:45:44.751Z,0.30
2023-01-22T06:48:17.592Z,0.30
2023-01-22T06:50:50.463Z,0.30
2023-01-22T06:53:23.258Z,0.40
2023-01-22T06:55:58.989Z,0.30
2023-01-22T06:58:32.521Z,0.40
2023-01-22T07:01:05.947Z,0.30
2023-01-22T07:03:38.745Z,0.30
2023-01-22T07:06:11.912Z,0.30
2023-01-22T07:08:45.143Z,0.40
2023-01-22T07:11:17.959Z,0.30
2023-01-22T07:13:50.707Z,0.30
2023-01-22T07:16:23.532Z,0.40
2023-01-22T07:18:56.260Z,0.40
2023-01-22T07:21:30.397Z,0.40
2023-01-22T07:24:03.415Z,0.40
2023-01-22T07:26:36.481Z,0.40
2023-01-22T07:29:10.389Z,0.40
2023-01-22T07:31:43.312Z,0.40
2023-01-22T07:34:16.135Z,0.40
2023-01-22T07:36:49.112Z,0.40
2023-01-22T07:39:21.849Z,0.40
2023-01-22T07:41:54.781Z,0.40
2023-01-22T07:44:27.540Z,0.40
2023-01-22T07:47:00.416Z,0.50
2023-01-22T07:49:33.279Z,0.50
2023-01-22T07:52:06.121Z,0.40
2023-01-22T07:54:38.892Z,0.50
2023-01-22T07:57:15.315Z,0.40
2023-01-22T07:59:48.142Z,0.50
2023-01-22T08:02:20.892Z,0.40
2023-01-22T08:04:53.610Z,0.50
2023-01-22T08:07:27.808Z,0.40
2023-01-22T08:10:00.638Z,0.50
2023-01-22T08:12:33.688Z,0.50
2023-01-22T08:15:06.816Z,0.50
2023-01-22T08:17:39.551Z,0.50
2023-01-22T08:20:12.378Z,0.50
2023-01-22T08:22:45.346Z,0.50
2023-01-22T08:25:18.110Z,0.50
2023-01-22T08:27:50.826Z,0.50
2023-01-22T08:30:23.925Z,0.50
2023-01-22T08:32:56.830Z,0.50
2023-01-22T08:35:30.770Z,0.50
2023-01-22T08:38:03.513Z,0.50
2023-01-22T08:40:37.977Z,0.50
2023-01-22T08:43:10.837Z,0.50
2023-01-22T08:45:44.858Z,0.60
2023-01-22T08:48:18.168Z,0.60
2023-01-22T08:50:50.977Z,0.70
2023-01-22T08:53:23.647Z,0.70
2023-01-22T08:55:56.328Z,0.70
2023-01-22T08:58:29.099Z,0.70
2023-01-22T09:01:02.116Z,0.70
2023-01-22T09:03:34.884Z,0.70
2023-01-22T09:06:07.689Z,0.70
2023-01-22T09:08:40.410Z,0.70
2023-01-22T09:11:13.140Z,0.80
2023-01-22T09:13:45.873Z,0.80
2023-01-22T09:16:18.669Z,0.80
2023-01-22T09:18:51.451Z,0.80
2023-01-22T09:21:24.247Z,0.80
2023-01-22T09:23:56.945Z,0.90
2023-01-22T09:26:32.144Z,0.90
2023-01-22T09:29:05.815Z,0.90
2023-01-22T09:31:38.936Z,0.90
2023-01-22T09:34:11.717Z,0.90
2023-01-22T09:36:45.739Z,0.90
2023-01-22T09:39:18.672Z,1.00
2023-01-22T09:41:57.625Z,0.90
2023-01-22T09:44:40.188Z,1.00
2023-01-22T09:47:18.092Z,1.00
2023-01-22T09:50:07.365Z,1.00
2023-01-22T09:52:40.737Z,1.00
2023-01-22T09:55:16.451Z,1.00
2023-01-22T09:57:55.621Z,1.10
2023-01-22T10:00:42.307Z,1.10
2023-01-22T10:03:23.514Z,1.10
2023-01-22T10:06:04.858Z,1.20
2023-01-22T10:08:50.486Z,1.20
2023-01-22T10:11:23.282Z,1.20
2023-01-22T10:13:59.288Z,1.20
2023-01-22T10:16:31.988Z,1.20
2023-01-22T10:19:25.154Z,1.30
2023-01-22T10:22:06.601Z,1.30
2023-01-22T10:24:39.288Z,1.30
2023-01-22T10:27:16.332Z,1.30
2023-01-22T10:30:04.593Z,1.30
2023-01-22T10:32:37.248Z,1.30
2023-01-22T10:35:21.053Z,1.30
2023-01-22T10:37:55.694Z,1.30
2023-01-22T10:40:30.848Z,1.30
2023-01-22T10:43:14.298Z,1.30
2023-01-22T10:45:55.860Z,1.40
2023-01-22T10:48:28.699Z,1.40
2023-01-22T10:51:22.200Z,1.40
2023-01-22T10:53:57.528Z,1.50
2023-01-22T10:56:31.580Z,1.40
2023-01-22T10:59:22.815Z,1.40
2023-01-22T11:01:58.839Z,1.30
2023-01-22T11:04:33.492Z,1.30
2023-01-22T11:07:13.171Z,1.30
2023-01-22T11:09:56.776Z,1.30
2023-01-22T11:12:35.555Z,1.30
2023-01-22T11:15:30.088Z,1.30
2023-01-22T11:18:05.988Z,1.30
2023-01-22T11:20:50.948Z,1.40
2023-01-22T11:23:39.006Z,1.40
2023-01-22T11:26:14.837Z,1.40
2023-01-22T11:28:59.236Z,1.40
2023-01-22T11:31:56.887Z,1.40
2023-01-22T11:35:01.131Z,1.50
2023-01-22T11:38:00.365Z,1.50
2023-01-22T11:40:35.775Z,1.50
2023-01-22T11:43:33.579Z,1.50
2023-01-22T11:46:32.078Z,1.50
2023-01-22T11:49:19.401Z,1.50
2023-01-22T11:51:58.021Z,1.50
2023-01-22T11:54:52.197Z,1.50
2023-01-22T11:57:32.945Z,1.50
2023-01-22T12:00:46.607Z,1.50
2023-01-22T12:03:49.505Z,1.50
2023-01-22T12:06:38.615Z,1.50
2023-01-22T12:09:32.069Z,1.50
2023-01-22T12:12:10.872Z,1.60
2023-01-22T12:15:16.481Z,1.50
2023-01-22T12:18:04.408Z,1.50
2023-01-22T12:20:39.898Z,1.50
2023-01-22T12:23:27.613Z,1.50
2023-01-22T12:26:31.514Z,1.50
2023-01-22T12:29:38.827Z,1.50
2023-01-22T12:32:15.142Z,1.60
2023-01-22T12:35:05.409Z,1.60
2023-01-22T12:38:00.341Z,1.60
2023-01-22T12:40:58.099Z,1.60
2023-01-22T12:43:41.806Z,1.60
2023-01-22T12:46:49.592Z,1.60
2023-01-22T12:49:22.419Z,1.60
2023-01-22T12:51:56.688Z,1.60
2023-01-22T12:54:35.331Z,1.50
2023-01-22T12:57:17.225Z,1.50
2023-01-22T12:59:52.792Z,1.50
2023-01-22T13:02:30.305Z,1.50
2023-01-22T13:05:21.596Z,1.50
2023-01-22T13:08:21.649Z,1.50
2023-01-22T13:11:03.609Z,1.50
2023-01-22T13:13:43.959Z,1.50
2023-01-22T13:16:32.552Z,1.60
2023-01-22T13:19:29.917Z,1.60
2023-01-22T13:22:03.341Z,1.60
2023-01-22T13:24:36.042Z,1.60
2023-01-22T13:27:23.145Z,1.50
2023-01-22T13:30:14.728Z,1.60
2023-01-22T13:32:47.403Z,1.60
2023-01-22T13:35:20.202Z,1.60
2023-01-22T13:37:52.849Z,1.60
2023-01-22T13:40:27.962Z,1.60
2023-01-22T13:43:00.715Z,1.60
2023-01-22T13:45:43.667Z,1.60
2023-01-22T13:48:19.676Z,1.50
2023-01-22T13:51:06.698Z,1.60
2023-01-22T13:53:51.101Z,1.50
2023-01-22T13:56:27.673Z,1.50
2023-01-22T13:59:17.229Z,1.50
2023-01-22T14:01:50.635Z,1.60
2023-01-22T14:04:27.901Z,1.60
2023-01-22T14:07:00.973Z,1.60
2023-01-22T14:09:37.437Z,1.50
2023-01-22T14:12:25.808Z,1.50
2023-01-22T14:14:58.618Z,1.50
2023-01-22T14:17:34.116Z,1.50
2023-01-22T14:20:07.640Z,1.60
2023-01-22T14:22:40.375Z,1.60
2023-01-22T14:25:13.137Z,1.60
2023-01-22T14:27:48.886Z,1.60
2023-01-22T14:30:22.637Z,1.70
2023-01-22T14:32:55.642Z,1.70
2023-01-22T14:35:28.897Z,1.70
2023-01-22T14:38:01.742Z,1.70
2023-01-22T14:40:34.878Z,1.60
2023-01-22T14:43:07.995Z,1.60
2023-01-22T14:45:42.015Z,1.60
2023-01-22T14:48:18.552Z,1.60
2023-01-22T14:50:51.550Z,1.60
2023-01-22T14:53:24.365Z,1.60
2023-01-22T14:55:57.171Z,1.50
2023-01-22T14:58:30.017Z,1.50
2023-01-22T15:01:17.750Z,1.50
2023-01-22T15:03:51.065Z,1.50
2023-01-22T15:06:24.796Z,1.50
2023-01-22T15:08:58.003Z,1.50
2023-01-22T15:11:31.451Z,1.50
2023-01-22T15:14:05.647Z,1.50
2023-01-22T15:16:39.041Z,1.40
2023-01-22T15:19:11.880Z,1.40
2023-01-22T15:21:44.879Z,1.40
2023-01-22T15:24:17.813Z,1.40
2023-01-22T15:26:50.507Z,1.40
2023-01-22T15:29:23.384Z,1.40
2023-01-22T15:31:56.080Z,1.40
2023-01-22T15:34:28.782Z,1.40
2023-01-22T15:37:02.876Z,1.40
2023-01-22T15:39:35.592Z,1.30
2023-01-22T15:42:08.831Z,1.30
2023-01-22T15:44:41.559Z,1.40
2023-01-22T15:47:15.480Z,1.30
2023-01-22T15:49:48.254Z,1.40
2023-01-22T15:52:20.994Z,1.40
2023-01-22T15:54:54.041Z,1.40
2023-01-22T15:57:26.808Z,1.40
2023-01-22T15:59:59.538Z,1.40
2023-01-22T16:02:32.512Z,1.40
2023-01-22T16:05:06.000Z,1.40
2023-01-22T16:07:38.645Z,1.40
2023-01-22T16:10:11.501Z,1.40
2023-01-22T16:12:44.163Z,1.40
2023-01-22T16:15:16.826Z,1.40
2023-01-22T16:17:49.490Z,1.40
2023-01-22T16:20:22.362Z,1.40
2023-01-22T16:22:55.242Z,1.40
2023-01-22T16:25:27.941Z,1.40
2023-01-22T16:28:00.671Z,1.40
2023-01-22T16:30:33.711Z,1.40
2023-01-22T16:33:28.783Z,1.40
2023-01-22T16:36:07.685Z,1.40
2023-01-22T16:38:41.479Z,1.40
2023-01-22T16:41:27.618Z,1.40
2023-01-22T16:44:09.607Z,1.30
2023-01-22T16:46:45.153Z,1.30
2023-01-22T16:49:26.628Z,1.30
2023-01-22T16:52:16.544Z,1.30
2023-01-22T16:54:53.828Z,1.30
2023-01-22T16:57:26.462Z,1.40
2023-01-22T16:59:59.296Z,1.30
2023-01-22T17:02:32.138Z,1.30
2023-01-22T17:05:12.795Z,1.30
2023-01-22T17:07:45.513Z,1.30
2023-01-22T17:10:18.725Z,1.20
2023-01-22T17:12:51.527Z,1.20
2023-01-22T17:15:24.279Z,1.20
2023-01-22T17:17:57.107Z,1.20
2023-01-22T17:20:30.006Z,1.20
2023-01-22T17:23:02.805Z,1.20
2023-01-22T17:25:40.243Z,1.20
2023-01-22T17:28:14.899Z,1.20
2023-01-22T17:30:50.454Z,1.20
2023-01-22T17:33:24.247Z,1.20
2023-01-22T17:36:01.005Z,1.20
2023-01-22T17:38:38.377Z,1.20
2023-01-22T17:41:17.709Z,1.20
2023-01-22T17:43:55.920Z,1.20
2023-01-22T17:46:31.791Z,1.20
2023-01-22T17:49:05.587Z,1.20
2023-01-22T17:51:38.611Z,1.20
2023-01-22T17:54:11.428Z,1.20
2023-01-22T17:56:47.164Z,1.30
2023-01-22T17:59:21.947Z,1.20
2023-01-22T18:01:54.813Z,1.20
2023-01-22T18:04:30.595Z,1.20
2023-01-22T18:07:04.548Z,1.20
2023-01-22T18:09:37.238Z,1.20
2023-01-22T18:12:10.030Z,1.20
2023-01-22T18:14:42.672Z,1.20
2023-01-22T18:17:15.397Z,1.20
2023-01-22T18:19:48.080Z,1.10
2023-01-22T18:22:21.189Z,1.10
2023-01-22T18:24:53.873Z,1.20
2023-01-22T18:27:27.183Z,1.20
2023-01-22T18:30:00.395Z,1.20
2023-01-22T18:32:35.665Z,1.10
2023-01-22T18:35:08.844Z,1.20
2023-01-22T18:37:41.584Z,1.20
2023-01-22T18:40:14.429Z,1.20
2023-01-22T18:42:47.991Z,1.10
2023-01-22T18:45:20.835Z,1.20
2023-01-22T18:47:54.576Z,1.20
2023-01-22T18:50:27.289Z,1.20
2023-01-22T18:53:02.026Z,1.20
2023-01-22T18:55:36.138Z,1.20
2023-01-22T18:58:27.620Z,1.20
2023-01-22T19:01:10.523Z,1.20
2023-01-22T19:03:46.094Z,1.20
2023-01-22T19:06:22.634Z,1.20
2023-01-22T19:08:59.302Z,1.20
2023-01-22T19:11:34.894Z,1.20
2023-01-22T19:14:09.107Z,1.20
2023-01-22T19:16:44.718Z,1.20
2023-01-22T19:19:17.749Z,1.20
2023-01-22T19:21:54.247Z,1.20
2023-01-22T19:24:28.357Z,1.20
2023-01-22T19:27:01.241Z,1.20
2023-01-22T19:29:34.014Z,1.20
2023-01-22T19:32:11.123Z,1.20
2023-01-22T19:34:43.899Z,1.20
2023-01-22T19:37:16.677Z,1.20
2023-01-22T19:39:49.520Z,1.20
2023-01-22T19:42:24.226Z,1.20
2023-01-22T19:44:56.963Z,1.20
2023-01-22T19:47:29.699Z,1.20
2023-01-22T19:50:02.433Z,1.20
2023-01-22T19:52:35.244Z,1.20
2023-01-22T19:55:08.268Z,1.20
2023-01-22T19:57:41.040Z,1.20
2023-01-22T20:00:14.200Z,1.20
2023-01-22T20:02:46.993Z,1.20
2023-01-22T20:05:20.531Z,1.20
2023-01-22T20:07:56.716Z,1.20
2023-01-22T20:10:31.113Z,1.20
2023-01-22T20:13:09.231Z,1.20
2023-01-22T20:15:42.845Z,1.20
2023-01-22T20:18:15.510Z,1.20
2023-01-22T20:21:03.865Z,1.20
2023-01-22T20:23:36.594Z,1.20
2023-01-22T20:26:10.300Z,1.20
2023-01-22T20:28:43.183Z,1.20
2023-01-22T20:31:23.311Z,1.20
2023-01-22T20:33:57.329Z,1.20
2023-01-22T20:36:30.474Z,1.20
2023-01-22T20:39:03.472Z,1.20
2023-01-22T20:41:36.212Z,1.20
2023-01-22T20:44:09.038Z,1.20
2023-01-22T20:46:44.587Z,1.20
2023-01-22T20:49:17.269Z,1.20
2023-01-22T20:51:50.122Z,1.20
2023-01-22T20:54:22.944Z,1.20
2023-01-22T20:56:55.939Z,1.20
2023-01-22T20:59:28.780Z,1.20
2023-01-22T21:02:01.618Z,1.20
2023-01-22T21:04:34.358Z,1.20
2023-01-22T21:07:07.018Z,1.20
2023-01-22T21:09:42.248Z,1.20
2023-01-22T21:12:15.001Z,1.20
2023-01-22T21:14:47.878Z,1.30
2023-01-22T21:17:23.748Z,1.30
2023-01-22T21:19:57.962Z,1.20
2023-01-22T21:22:30.743Z,1.20
2023-01-22T21:25:03.634Z,1.20
2023-01-22T21:27:36.357Z,1.20
2023-01-22T21:30:17.344Z,1.20
2023-01-22T21:32:54.547Z,1.20
2023-01-22T21:35:31.189Z,1.20
2023-01-22T21:38:04.574Z,1.20
2023-01-22T21:40:37.986Z,1.30
2023-01-22T21:43:34.013Z,1.20
2023-01-22T21:46:22.669Z,1.20
2023-01-22T21:49:21.483Z,1.20
2023-01-22T21:52:02.858Z,1.30
2023-01-22T21:54:44.343Z,1.30
2023-01-22T21:57:25.543Z,1.30
2023-01-22T22:00:01.547Z,1.30
2023-01-22T22:02:37.259Z,1.30
2023-01-22T22:05:11.257Z,1.30
2023-01-22T22:07:44.585Z,1.30
2023-01-22T22:10:20.878Z,1.30
2023-01-22T22:13:01.063Z,1.20
2023-01-22T22:15:34.870Z,1.30
2023-01-22T22:18:13.904Z,1.30
2023-01-22T22:20:49.551Z,1.30
2023-01-22T22:23:25.921Z,1.30
2023-01-22T22:26:02.065Z,1.20
2023-01-22T22:28:36.426Z,1.20
2023-01-22T22:31:15.025Z,1.20
2023-01-22T22:33:56.004Z,1.30
2023-01-22T22:36:31.444Z,1.20
2023-01-22T22:39:06.869Z,1.30
2023-01-22T22:41:42.546Z,1.30
2023-01-22T22:44:18.089Z,1.30
2023-01-22T22:46:51.887Z,1.30
2023-01-22T22:49:30.114Z,1.30
2023-01-22T22:52:03.831Z,1.30
2023-01-22T22:54:37.530Z,1.30
2023-01-22T22:57:11.333Z,1.30
2023-01-22T22:59:45.641Z,1.30
2023-01-22T23:02:22.033Z,1.30
2023-01-22T23:04:56.544Z,1.30
2023-01-22T23:07:29.942Z,1.30
2023-01-22T23:10:05.064Z,1.30
2023-01-22T23:12:38.582Z,1.30
2023-01-22T23:15:14.059Z,1.30
2023-01-22T23:17:50.303Z,1.30
2023-01-22T23:20:30.341Z,1.30
2023-01-22T23:23:06.239Z,1.30
2023-01-22T23:25:43.824Z,1.30
2023-01-22T23:28:20.186Z,1.30
2023-01-22T23:30:54.580Z,1.30
2023-01-22T23:33:28.111Z,1.30
2023-01-22T23:36:09.279Z,1.30
2023-01-22T23:38:46.665Z,1.40
2023-01-22T23:41:21.405Z,1.30
2023-01-22T23:43:55.202Z,1.40
2023-01-22T23:46:31.276Z,1.40
2023-01-22T23:49:05.687Z,1.40
2023-01-22T23:51:41.414Z,1.30
2023-01-22T23:54:15.554Z,1.40
2023-01-22T23:56:49.260Z,1.40
2023-01-22T23:59:23.999Z,1.40
